27 giugno 2022

Tempo Codice Tempo metereologico Temp. Vista Base nuvolosa Vento METAR/SPECI
4:00 pm
V
72 °F 6¼ mi+ - 320° 320° 8 kt METAR LFBD 271400Z AUTO 32008KT 290V360 CAVOK 22/10 Q1022 NOSIG
3:30 pm
V
73 °F 6¼ mi+ - 320° 320° 7 kt METAR LFBD 271330Z AUTO 32007KT 270V360 CAVOK 23/11 Q1021 NOSIG
3:00 pm
V
72 °F 6¼ mi+ - 300° 300° 5 kt METAR LFBD 271300Z AUTO 30005KT 270V340 CAVOK 22/10 Q1021 NOSIG
2:30 pm
V
72 °F 6¼ mi+ - 320° 320° 7 kt METAR LFBD 271230Z AUTO 32007KT 280V340 CAVOK 22/11 Q1021 NOSIG
2:00 pm
V
72 °F 6¼ mi+ 6.600 ft 330° 330° 4 kt METAR LFBD 271200Z AUTO 33004KT 270V050 9999 FEW049 OVC066 22/11 Q1021 NOSIG
1:30 pm
V
72 °F 6¼ mi+ 6.000 ft 310° 310° 5 kt METAR LFBD 271130Z AUTO 31005KT 220V020 9999 FEW045 BKN060 BKN072 22/10 Q1022 NOSIG
1:00 pm
V
68 °F 6¼ mi+ 5.800 ft 330° 330° 5 kt METAR LFBD 271100Z AUTO 33005KT 300V020 9999 FEW037 SCT045 BKN058 20/11 Q1022 NOSIG
12:30 pm
V
70 °F 6¼ mi+ - 020° 020° 5 kt METAR LFBD 271030Z AUTO 02005KT 340V070 CAVOK 21/12 Q1021 NOSIG
12:00 pm
V
66 °F 6¼ mi+ 5.000 ft 360° 360° 4 kt METAR LFBD 271000Z AUTO 36004KT 270V060 9999 FEW042 BKN050 OVC060 19/11 Q1021 NOSIG
11:30 am
V
66 °F 6¼ mi+ 4.400 ft 330° 330° 10 kt METAR LFBD 270930Z AUTO 33010KT 9999 FEW038 BKN044 OVC056 19/11 Q1021 NOSIG
11:00 am
V
66 °F 6¼ mi+ 4.100 ft 330° 330° 6 kt METAR LFBD 270900Z AUTO 33006KT 290V020 9999 SCT035 BKN041 BKN052 19/11 Q1021 NOSIG
10:30 am
V
68 °F 6¼ mi+ 4.600 ft 330° 330° 6 kt METAR LFBD 270830Z AUTO 33006KT 300V010 9999 SCT036 BKN046 BKN054 20/11 Q1021 NOSIG
10:00 am
M
64 °F 6¼ mi+ 2.800 ft 320° 320° 5 kt METAR LFBD 270800Z AUTO 32005KT 270V030 9999 BKN028 BKN035 18/12 Q1021 NOSIG
9:30 am
V
64 °F 6¼ mi+ - Var Var 1 kt METAR LFBD 270730Z AUTO VRB01KT 9999 FEW044 18/12 Q1020 NOSIG
9:00 am
V
63 °F 6¼ mi+ 5.200 ft 260° 260° 1 kt METAR LFBD 270700Z AUTO 26001KT 9999 FEW041 BKN052 17/13 Q1020 NOSIG
8:30 am
V
61 °F 6¼ mi+ - Var Var 2 kt METAR LFBD 270630Z AUTO VRB02KT 9999 FEW037 SCT045 16/13 Q1020 NOSIG
8:00 am
V
61 °F 6¼ mi+ - Var Var 2 kt METAR LFBD 270600Z AUTO VRB02KT 9999 FEW035 16/13 Q1019 NOSIG
7:30 am
V
57 °F 6¼ mi+ - Var 000° 0 kt METAR LFBD 270530Z AUTO 00000KT CAVOK 14/12 Q1019 NOSIG
7:00 am
V
55 °F 6¼ mi+ - Var Var 2 kt METAR LFBD 270500Z AUTO VRB02KT CAVOK 13/12 Q1019 NOSIG
6:30 am
V
54 °F 6¼ mi+ - Var 000° 0 kt METAR LFBD 270430Z AUTO 00000KT 9999 FEW038 12/11 Q1019 NOSIG
6:00 am
V
55 °F 6¼ mi+ - Var Var 1 kt METAR LFBD 270400Z AUTO VRB01KT 9999 FEW033 SCT120 13/11 Q1018 NOSIG
5:30 am
V
55 °F 6¼ mi+ - 270° 270° 3 kt METAR LFBD 270330Z AUTO 27003KT CAVOK 13/12 Q1018 NOSIG
5:00 am
V
55 °F 6¼ mi+ - 210° 210° 2 kt METAR LFBD 270300Z AUTO 21002KT CAVOK 13/12 Q1018 NOSIG
4:30 am
V
55 °F 6¼ mi+ - 260° 260° 2 kt METAR LFBD 270230Z AUTO 26002KT CAVOK 13/12 Q1018 NOSIG
4:00 am
V
57 °F 6¼ mi+ - 290° 290° 4 kt METAR LFBD 270200Z AUTO 29004KT CAVOK 14/12 Q1018 NOSIG
3:30 am
V
57 °F 6¼ mi+ - 260° 260° 3 kt METAR LFBD 270130Z AUTO 26003KT CAVOK 14/12 Q1018 NOSIG
3:00 am
V
59 °F 6¼ mi+ - 260° 260° 3 kt METAR LFBD 270100Z AUTO 26003KT CAVOK 15/12 Q1018 NOSIG
2:30 am
V
59 °F 6¼ mi+ - 270° 270° 2 kt METAR LFBD 270030Z AUTO 27002KT CAVOK 15/12 Q1018 NOSIG
2:00 am
V
59 °F 6¼ mi+ - Var Var 1 kt METAR LFBD 270000Z AUTO VRB01KT CAVOK 15/13 Q1018 NOSIG
1:30 am
V
61 °F 6¼ mi+ - 290° 290° 3 kt METAR LFBD 262330Z AUTO 29003KT CAVOK 16/13 Q1018 NOSIG
1:00 am
V
61 °F 6¼ mi+ - 300° 300° 3 kt METAR LFBD 262300Z AUTO 30003KT 280V020 CAVOK 16/13 Q1018 NOSIG
12:30 am
V
61 °F 6¼ mi+ - 300° 300° 5 kt METAR LFBD 262230Z AUTO 30005KT CAVOK 16/13 Q1017 NOSIG
12:00 am
V
63 °F 6¼ mi+ - 330° 330° 3 kt METAR LFBD 262200Z AUTO 33003KT 300V360 CAVOK 17/13 Q1017 NOSIG

26 giugno 2022

Tempo Codice Tempo metereologico Temp. Vista Base nuvolosa Vento METAR/SPECI
11:30 pm
V
63 °F 6¼ mi+ - 310° 310° 2 kt METAR LFBD 262130Z AUTO 31002KT 9999 //////TCU 17/13 Q1017 BECMG NSC
11:00 pm
V
63 °F 6¼ mi+ - 300° 300° 4 kt METAR LFBD 262100Z AUTO 30004KT 9999 //////TCU 17/13 Q1017 BECMG NSC
10:30 pm
V
63 °F 6¼ mi+ - 330° 330° 4 kt METAR LFBD 262030Z AUTO 33004KT CAVOK 17/13 Q1016 NOSIG
10:00 pm
V
63 °F 6¼ mi+ - 310° 310° 5 kt METAR LFBD 262000Z AUTO 31005KT 300V030 CAVOK 17/13 Q1016 TEMPO BKN030TCU
9:30 pm
V
64 °F 6¼ mi+ 4.900 ft 300° 300° 5 kt METAR LFBD 261930Z AUTO 30005KT 270V010 9999 OVC049 18/13 Q1016 TEMPO BKN030TCU
9:00 pm
V
64 °F 6¼ mi+ 4.500 ft 300° 300° 6 kt METAR LFBD 261900Z AUTO 30006KT 9999 BKN045 OVC052 18/13 Q1016 TEMPO BKN030TCU
8:30 pm
V
64 °F 6¼ mi+ 4.200 ft 300° 300° 6 kt METAR LFBD 261830Z AUTO 30006KT 9999 FEW035 OVC042 18/13 Q1015 TEMPO BKN030TCU
8:00 pm
V
64 °F 6¼ mi+ 3.900 ft 300° 300° 6 kt METAR LFBD 261800Z AUTO 30006KT 9999 BKN039 BKN049 OVC070 18/12 Q1015 TEMPO BKN030TCU
7:30 pm
V
66 °F 6¼ mi+ 3.700 ft 310° 310° 6 kt METAR LFBD 261730Z AUTO 31006KT 9999 BKN037 BKN046 OVC054 19/13 Q1015 TEMPO BKN030TCU
7:00 pm
V
66 °F 6¼ mi+ 4.800 ft 300° 300° 3 kt METAR LFBD 261700Z AUTO 30003KT 9999 FEW028 BKN048 OVC054 19/12 Q1015 NOSIG
6:30 pm
V
66 °F 6¼ mi+ 4.600 ft Var Var 3 kt METAR LFBD 261630Z AUTO VRB03KT 9999 BKN046 OVC054 19/13 Q1015 NOSIG
6:00 pm
V
66 °F 6¼ mi+ 4.300 ft 080° 080° 6 kt METAR LFBD 261600Z AUTO 08006KT 9999 FEW033 BKN043 OVC049 19/13 Q1015 NOSIG
5:30 pm
V
64 °F 6¼ mi+ 4.200 ft 060° 060° 5 kt METAR LFBD 261530Z AUTO 06005KT 040V100 9999 OVC042 18/13 Q1015 NOSIG
5:00 pm
V
64 °F 6¼ mi+ 4.300 ft 050° 050° 4 kt METAR LFBD 261500Z AUTO 05004KT 020V090 9999 OVC043 18/13 Q1015 NOSIG
4:30 pm
V
64 °F 6¼ mi+ 4.200 ft 070° 070° 6 kt METAR LFBD 261430Z AUTO 07006KT 030V100 9999 OVC042/// //////TCU 18/14 Q1015 BECMG NSC
4:00 pm
V
64 °F 6¼ mi+ 4.100 ft 060° 060° 4 kt METAR LFBD 261400Z AUTO 06004KT 9999 OVC041/// ///TCU 18/13 Q1015 TEMPO 3000 -SHRA BECMG NSC
3:30 pm
V
64 °F 6¼ mi+ 3.800 ft 030° 030° 5 kt METAR LFBD 261330Z AUTO 03005KT 360V080 9999 BKN038 OVC044 18/13 Q1015 TEMPO 3000 -SHRA BKN020TCU
3:00 pm
V
64 °F 6¼ mi+ 3.400 ft Var Var 3 kt METAR LFBD 261300Z AUTO VRB03KT 9999 BKN034/// OVC041/// ///CB 18/13 Q1015 TEMPO 3000 -SHRA
2:30 pm
V
64 °F 6¼ mi+ 4.500 ft 010° 010° 2 kt METAR LFBD 261230Z AUTO 01002KT 9999 FEW032/// OVC045/// ///CB 18/13 Q1015 TEMPO 3000 -SHRA
2:00 pm
V
64 °F 6¼ mi+ 4.500 ft 030° 030° 3 kt METAR LFBD 261200Z AUTO 03003KT 360V070 9999 FEW030/// OVC045/// ///TCU 18/12 Q1015 TEMPO 3000 -SHRA BKN020CB
1:30 pm
V
66 °F 6¼ mi+ 4.300 ft 020° 020° 4 kt METAR LFBD 261130Z AUTO 02004KT 350V080 9999 SCT030 BKN043 BKN058 19/12 Q1015 TEMPO 4000 -RA SCT008 BKN030TCU
1:00 pm
V
66 °F 6¼ mi+ 4.900 ft 030° 030° 4 kt METAR LFBD 261100Z AUTO 03004KT 330V100 9999 SCT030 BKN049 BKN062 19/12 Q1015 TEMPO 4000 -RA SCT008 BKN030TCU
12:30 pm
V
66 °F 6¼ mi+ 6.600 ft 040° 040° 5 kt METAR LFBD 261030Z AUTO 04005KT 360V120 9999 FEW027 SCT043 BKN066 19/12 Q1015 TEMPO 4000 -RA SCT008 BKN030TCU
12:00 pm
V
66 °F 6¼ mi+ 6.200 ft 040° 040° 5 kt METAR LFBD 261000Z AUTO 04005KT 010V070 9999 SCT025 SCT030 BKN062 19/13 Q1015 TEMPO 4000 -RA SCT008 BKN030TCU
11:30 am
M
64 °F 6¼ mi+ 2.100 ft 050° 050° 4 kt METAR LFBD 260930Z AUTO 05004KT 360V090 9999 BKN021 BKN030 OVC062 18/13 Q1015 TEMPO 4000 -RA SCT008 BKN030TCU
11:00 am
V
64 °F 6¼ mi+ 6.200 ft Var Var 3 kt METAR LFBD 260900Z AUTO VRB03KT 9999 FEW018 OVC062 18/13 Q1015 TEMPO 4000 -RA SCT008 BKN030TCU
10:30 am
V
64 °F 6¼ mi+ - Var 000° 0 kt METAR LFBD 260830Z AUTO 00000KT CAVOK 18/13 Q1015 TEMPO 4000 -RA SCT008 BKN030TCU
10:00 am
V
63 °F 6¼ mi+ - Var 000° 0 kt METAR LFBD 260800Z AUTO 00000KT CAVOK 17/12 Q1015 TEMPO 4000 -RA SCT008 BKN030TCU
9:30 am
V
61 °F 6¼ mi+ - Var Var 2 kt METAR LFBD 260730Z AUTO VRB02KT CAVOK 16/13 Q1015 TEMPO 4000 -RA SCT008 BKN030TCU
9:00 am
V
59 °F 6¼ mi+ - Var 000° 0 kt METAR LFBD 260700Z AUTO 00000KT CAVOK 15/13 Q1015 TEMPO 4000 -RA SCT008 BKN030TCU
8:30 am
V
59 °F 6¼ mi+ - Var 000° 0 kt METAR LFBD 260630Z AUTO 00000KT CAVOK 15/13 Q1015 TEMPO 4000 -RA SCT008 BKN030TCU
8:00 am
V
57 °F 6¼ mi+ - Var 000° 0 kt METAR LFBD 260600Z AUTO 00000KT CAVOK 14/13 Q1015 TEMPO 4000 -RA SCT008 BKN030TCU
7:30 am
V
57 °F 6¼ mi+ - Var Var 1 kt METAR LFBD 260530Z AUTO VRB01KT CAVOK 14/13 Q1015 TEMPO 4000 -RA SCT008 BKN030TCU
7:00 am
V
57 °F 6¼ mi+ - 170° 170° 2 kt METAR LFBD 260500Z AUTO 17002KT CAVOK 14/13 Q1015 TEMPO 4000 SHRA BKN035TCU
6:30 am
V
57 °F 6¼ mi+ - 170° 170° 3 kt METAR LFBD 260430Z AUTO 17003KT CAVOK 14/14 Q1015 TEMPO 4000 SHRA BKN035TCU
6:00 am
V
57 °F 6¼ mi+ - 160° 160° 3 kt METAR LFBD 260400Z AUTO 16003KT CAVOK 14/14 Q1015 TEMPO 4000 SHRA BKN035TCU
5:30 am
V
57 °F 6¼ mi+ - 140° 140° 3 kt METAR LFBD 260330Z AUTO 14003KT 9999 -RA //////TCU 14/14 Q1015 TEMPO 4000 SHRA
5:00 am
V
57 °F 6¼ mi+ 8.000 ft 160° 160° 4 kt METAR LFBD 260300Z AUTO 16004KT 9999 -RA FEW013/// BKN080/// OVC100/// ///TCU 14/14 Q1015 TEMPO 4000 SHRA NSC
4:30 am
V
59 °F 5⅝ mi 3.100 ft 180° 180° 4 kt METAR LFBD 260230Z AUTO 18004KT 160V240 9000 -RA FEW005/// BKN031/// BKN046/// ///TCU 15/14 Q1015 TEMPO 4000 SHRA NSC
4:00 am
V
59 °F 6¼ mi+ 7.800 ft Var Var 2 kt METAR LFBD 260200Z AUTO VRB02KT 9999 -RA FEW031 BKN078 OVC088 15/14 Q1015 TEMPO 4500 -RA BKN030TCU
3:30 am
V
59 °F 6¼ mi+ 5.000 ft 160° 160° 3 kt METAR LFBD 260130Z AUTO 16003KT 9999 FEW029/// SCT041/// BKN050/// ///CB 15/14 Q1015 TEMPO 4500 -RA BECMG NSC
3:00 am
V
59 °F 6¼ mi+ 8.000 ft 190° 190° 6 kt METAR LFBD 260100Z AUTO 19006KT 9999 -RA FEW029/// OVC080/// //////CB 15/14 Q1016 TEMPO 4500 -RA
2:30 am
V
59 °F 6¼ mi+ - Var Var 2 kt METAR LFBD 260030Z AUTO VRB02KT 9999 //////TCU 15/14 Q1015 TEMPO 4500 -RA
2:00 am
V
59 °F 6¼ mi+ - Var 000° 0 kt METAR LFBD 260000Z AUTO 00000KT 9999 ///TCU 15/14 Q1015 TEMPO 4500 -RA
1:30 am
V
59 °F 6¼ mi+ - 190° 190° 5 kt METAR LFBD 252330Z AUTO 19005KT 9999 RA ///CB 15/14 Q1016 TEMPO 4500 -RA
1:00 am
V
61 °F 6¼ mi+ - 200° 200° 4 kt METAR LFBD 252300Z AUTO 20004KT 9999 ///TCU 16/13 Q1016 BECMG NSC
12:30 am
V
61 °F 6¼ mi+ - 190° 190° 5 kt METAR LFBD 252230Z AUTO 19005KT 9999 //////TCU 16/13 Q1015 BECMG NSC
12:00 am
V
61 °F 6¼ mi+ - 210° 210° 3 kt METAR LFBD 252200Z AUTO 21003KT CAVOK 16/13 Q1015 NOSIG

25 giugno 2022

Tempo Codice Tempo metereologico Temp. Vista Base nuvolosa Vento METAR/SPECI
11:30 pm
V
61 °F 6¼ mi+ - 220° 220° 3 kt METAR LFBD 252130Z AUTO 22003KT CAVOK 16/13 Q1015 NOSIG
11:00 pm
V
61 °F 6¼ mi+ - 220° 220° 3 kt METAR LFBD 252100Z AUTO 22003KT 200V260 CAVOK 16/13 Q1015 NOSIG
10:30 pm
V
61 °F 6¼ mi+ - 260° 260° 4 kt METAR LFBD 252030Z AUTO 26004KT CAVOK 16/12 Q1015 NOSIG
10:00 pm
V
61 °F 6¼ mi+ - 260° 260° 3 kt METAR LFBD 252000Z AUTO 26003KT CAVOK 16/12 Q1015 NOSIG
9:30 pm
V
61 °F 6¼ mi+ - Var Var 3 kt METAR LFBD 251930Z AUTO VRB03KT CAVOK 16/12 Q1015 NOSIG
9:00 pm
V
61 °F 6¼ mi+ - 270° 270° 3 kt METAR LFBD 251900Z AUTO 27003KT CAVOK 16/12 Q1015 TEMPO 4000 -SHRA FEW020CB BKN025TCU
8:30 pm
V
63 °F 6¼ mi+ 6.200 ft 280° 280° 5 kt METAR LFBD 251830Z AUTO 28005KT 9999 FEW045 OVC062 17/11 Q1014 TEMPO 4000 -SHRA FEW020CB BKN025TCU
8:00 pm
V
63 °F 6¼ mi+ 6.000 ft 280° 280° 7 kt METAR LFBD 251800Z AUTO 28007KT 9999 SCT046 OVC060 17/11 Q1014 TEMPO 4000 -SHRA FEW020CB BKN025TCU
7:30 pm
V
63 °F 6¼ mi+ - 290° 290° 6 kt METAR LFBD 251730Z AUTO 29006KT CAVOK 17/11 Q1014 TEMPO 4000 -SHRA FEW020CB BKN025TCU
7:00 pm
V
63 °F 6¼ mi+ - 290° 290° 9 kt METAR LFBD 251700Z AUTO 29009KT CAVOK 17/11 Q1014 TEMPO 4000 -SHRA FEW020CB BKN025TCU
6:30 pm
V
64 °F 6¼ mi+ - 310° 310° 8 kt METAR LFBD 251630Z AUTO 31008KT 9999 //////TCU 18/11 Q1014 TEMPO 4000 -SHRA FEW020CB BKN025TCU
6:00 pm
V
64 °F 6¼ mi+ 8.800 ft 290° 290° 10 kt METAR LFBD 251600Z AUTO 29010KT 260V320 9999 SCT042 SCT058 OVC088 18/11 Q1014 TEMPO 4000 -SHRA FEW020CB BKN025TCU
5:30 pm
V
66 °F 6¼ mi+ 4.100 ft 290° 290° 10 kt METAR LFBD 251530Z AUTO 29010KT 9999 OVC041 19/12 Q1014 TEMPO 4000 -SHRA FEW020CB BKN025TCU
5:00 pm
V
68 °F 6¼ mi+ 4.400 ft 290° 290° 9 kt METAR LFBD 251500Z AUTO 29009KT 260V320 9999 BKN044 OVC052 20/10 Q1014 TEMPO 4000 -SHRA FEW020CB BKN025TCU
4:30 pm
V
70 °F 6¼ mi+ 3.900 ft 310° 310° 8 kt METAR LFBD 251430Z AUTO 31008KT 280V340 9999 BKN039 OVC052 21/11 Q1014 TEMPO 4000 -SHRA FEW020CB BKN025TCU
4:00 pm
V
68 °F 6¼ mi+ 5.200 ft 320° 320° 10 kt METAR LFBD 251400Z AUTO 32010KT 280V350 9999 SCT036 BKN052 OVC064 20/11 Q1013 TEMPO 4000 -SHRA FEW020CB BKN025TCU
Dati più vecchi

Scarica la nostra applicazione

Facile accesso a tutte le previsioni dell'aviazione sul tuo cellulare e tablet.
Con molte caratteristiche non disponibili sul sito web, come il supporto offline e una lista personale di aeroporti.

Noi e le terze parti seguiamo il tuo comportamento in internet sul nostro sito web con i cookie. Se continui, riteniamo che tu sia d'accordo con la nostra politica sui cookie. Per saperne di più